Time;durP1;ratioP1;P1;durP2;ratioP2;P2;SDS_P1;SDS_P2;PMS_P1;PMS_P2;Temp;Humidity;BMP_temperature;BMP_pressure;BME280_temperature;BME280_humidity;BME280_pressure;Samples;Min_cycle;Max_cycle;Signal;HPM_P1;HPM_P2
2023/07/15 00:01:29;;;;;;;0.10;0.10;;;19.70;99.90;;;;;;5031477;28;20045;-66
2023/07/15 00:03:55;;;;;;;0.00;0.00;;;19.70;99.90;;;;;;5037596;28;20409;-66
2023/07/15 00:06:23;;;;;;;0.08;0.08;;;19.80;99.90;;;;;;5041410;28;20312;-66
2023/07/15 00:08:50;;;;;;;0.57;0.55;;;19.80;99.90;;;;;;5039549;28;20085;-66
2023/07/15 00:11:27;;;;;;;0.00;0.00;;;19.80;99.90;;;;;;5028179;28;20456;-66
2023/07/15 00:13:52;;;;;;;1.15;0.28;;;19.80;99.90;;;;;;5046200;28;20128;-66
2023/07/15 00:16:19;;;;;;;0.00;0.00;;;19.80;99.90;;;;;;5041684;28;20457;-67
2023/07/15 00:18:45;;;;;;;0.17;0.10;;;19.80;99.90;;;;;;5024678;28;20523;-66
2023/07/15 00:21:22;;;;;;;0.50;0.50;;;19.90;99.90;;;;;;5035983;28;20043;-66
2023/07/15 00:23:55;;;;;;;0.00;0.00;;;19.90;99.90;;;;;;5049875;28;20068;-67
2023/07/15 00:26:32;;;;;;;0.13;0.10;;;19.90;99.90;;;;;;5028249;28;20060;-66
2023/07/15 00:28:58;;;;;;;0.00;0.00;;;19.90;99.90;;;;;;5017533;28;20477;-66
2023/07/15 00:31:25;;;;;;;0.10;0.10;;;19.90;99.90;;;;;;5041444;28;20067;-66
2023/07/15 00:33:51;;;;;;;0.40;0.40;;;19.90;99.90;;;;;;5033862;28;20133;-66
2023/07/15 00:36:18;;;;;;;0.60;0.57;;;19.90;99.90;;;;;;5022890;28;20056;-67
2023/07/15 00:38:45;;;;;;;0.98;0.50;;;19.90;99.90;;;;;;5037038;28;20493;-66
2023/07/15 00:41:22;;;;;;;0.10;0.10;;;19.90;99.90;;;;;;5030238;28;20054;-66
2023/07/15 00:43:54;;;;;;;0.00;0.00;;;19.90;99.90;;;;;;5027135;28;20041;-67
2023/07/15 00:46:22;;;;;;;0.30;0.30;;;19.90;99.90;;;;;;5022168;28;20506;-67
2023/07/15 00:48:53;;;;;;;0.00;0.00;;;19.90;99.90;;;;;;5040763;28;20127;-67
2023/07/15 00:51:19;;;;;;;0.10;0.10;;;19.90;99.90;;;;;;5019170;28;20052;-66
2023/07/15 00:53:45;;;;;;;0.05;0.05;;;19.90;99.90;;;;;;5036542;28;20079;-66
2023/07/15 00:56:11;;;;;;;0.30;0.10;;;19.90;99.90;;;;;;5031945;28;20069;-66
2023/07/15 00:58:37;;;;;;;0.30;0.30;;;19.90;99.90;;;;;;5033703;28;20053;-67
2023/07/15 01:01:03;;;;;;;0.00;0.00;;;20.00;99.90;;;;;;5040251;28;20041;-67
2023/07/15 01:03:28;;;;;;;0.55;0.55;;;19.90;99.90;;;;;;5034507;28;20041;-67
2023/07/15 01:05:55;;;;;;;0.00;0.00;;;19.90;99.90;;;;;;5019046;28;20049;-67
2023/07/15 01:08:21;;;;;;;0.63;0.40;;;20.00;99.90;;;;;;5045172;28;20039;-66
2023/07/15 01:10:47;;;;;;;0.68;0.40;;;20.00;99.90;;;;;;5036084;28;20045;-67
2023/07/15 01:13:12;;;;;;;0.00;0.00;;;20.00;99.90;;;;;;5036757;28;20575;-69
2023/07/15 01:15:38;;;;;;;0.00;0.00;;;20.00;99.90;;;;;;5042901;28;20084;-66
2023/07/15 01:18:04;;;;;;;0.10;0.10;;;20.00;99.90;;;;;;5029183;28;20086;-66
2023/07/15 01:20:32;;;;;;;0.10;0.10;;;20.00;99.90;;;;;;5045650;28;20120;-66
2023/07/15 01:22:58;;;;;;;0.20;0.20;;;20.00;99.90;;;;;;5013122;28;20056;-66
2023/07/15 01:25:23;;;;;;;0.00;0.00;;;20.10;99.90;;;;;;5032539;28;20041;-66
2023/07/15 01:27:49;;;;;;;0.03;0.03;;;20.10;99.90;;;;;;5045980;28;20055;-67
2023/07/15 01:30:15;;;;;;;0.00;0.00;;;20.10;99.90;;;;;;5017641;28;20136;-66
2023/07/15 01:32:41;;;;;;;0.10;0.10;;;20.10;99.90;;;;;;5031966;28;20055;-66
2023/07/15 01:35:07;;;;;;;0.00;0.00;;;20.10;99.90;;;;;;5037063;28;20116;-66
2023/07/15 01:37:33;;;;;;;0.10;0.10;;;20.10;99.90;;;;;;5041191;28;20404;-66
2023/07/15 01:39:59;;;;;;;0.10;0.10;;;20.10;99.90;;;;;;5026140;28;20410;-66
2023/07/15 01:42:25;;;;;;;0.00;0.00;;;20.10;99.90;;;;;;5038773;28;20043;-66
2023/07/15 01:44:50;;;;;;;0.45;0.30;;;20.20;99.90;;;;;;5027102;28;20404;-66
2023/07/15 01:47:16;;;;;;;0.00;0.00;;;20.10;99.90;;;;;;5033724;28;20099;-66
2023/07/15 01:49:42;;;;;;;0.43;0.32;;;20.10;99.90;;;;;;5023049;28;20084;-66
2023/07/15 01:52:08;;;;;;;0.00;0.00;;;20.10;99.90;;;;;;5029540;28;20057;-67
2023/07/15 01:54:34;;;;;;;0.30;0.30;;;20.00;99.90;;;;;;5030300;28;20099;-66
2023/07/15 01:56:59;;;;;;;1.08;0.43;;;20.10;99.90;;;;;;5030731;28;20076;-66
2023/07/15 01:59:25;;;;;;;0.00;0.00;;;20.10;99.90;;;;;;5033447;28;20041;-66
2023/07/15 02:01:54;;;;;;;0.40;0.28;;;20.10;99.90;;;;;;5030560;28;20050;-67
2023/07/15 02:04:20;;;;;;;0.15;0.13;;;20.20;99.90;;;;;;5044418;28;20401;-66
2023/07/15 02:06:46;;;;;;;0.43;0.43;;;20.20;99.90;;;;;;5027592;28;20042;-66
2023/07/15 02:09:12;;;;;;;0.00;0.00;;;20.30;99.90;;;;;;5032375;28;20087;-67
2023/07/15 02:11:38;;;;;;;0.00;0.00;;;20.30;99.90;;;;;;5039320;28;20110;-66
2023/07/15 02:14:03;;;;;;;0.00;0.00;;;20.30;99.90;;;;;;5037519;28;20718;-66
2023/07/15 02:16:29;;;;;;;0.08;0.08;;;20.30;99.90;;;;;;5030186;28;20040;-66
2023/07/15 02:18:55;;;;;;;0.03;0.03;;;20.30;99.90;;;;;;5035423;28;20048;-66
2023/07/15 02:21:24;;;;;;;0.00;0.00;;;20.40;99.90;;;;;;5037797;28;20517;-66
2023/07/15 02:23:52;;;;;;;0.35;0.35;;;20.40;99.90;;;;;;5037186;28;20053;-66
2023/07/15 02:26:17;;;;;;;0.00;0.00;;;20.40;99.90;;;;;;5032744;28;20060;-66
2023/07/15 02:28:43;;;;;;;0.10;0.10;;;20.40;99.90;;;;;;5038151;28;20033;-66
2023/07/15 02:31:09;;;;;;;0.00;0.00;;;20.40;99.90;;;;;;5036360;28;20132;-68
2023/07/15 02:33:35;;;;;;;0.05;0.05;;;20.40;99.90;;;;;;5017624;28;20041;-69
2023/07/15 02:36:02;;;;;;;0.00;0.00;;;20.40;99.90;;;;;;5027796;28;20060;-68
2023/07/15 02:38:28;;;;;;;0.00;0.00;;;20.40;99.90;;;;;;5016833;28;20063;-69
2023/07/15 02:40:54;;;;;;;0.17;0.13;;;20.40;99.90;;;;;;5045919;28;20396;-68
2023/07/15 02:43:20;;;;;;;0.10;0.10;;;20.40;99.90;;;;;;5041436;28;20128;-69
2023/07/15 02:45:52;;;;;;;0.47;0.30;;;20.40;99.90;;;;;;5034787;28;20116;-68
2023/07/15 02:48:21;;;;;;;0.28;0.20;;;20.40;99.90;;;;;;5045047;28;20053;-68
2023/07/15 02:50:54;;;;;;;0.28;0.20;;;20.40;99.90;;;;;;5038444;28;20040;-68
2023/07/15 02:53:19;;;;;;;;;;;20.40;99.90;;;;;;5019896;28;20045;-68
2023/07/15 02:55:45;;;;;;;0.10;0.10;;;20.30;99.90;;;;;;5053094;28;19931;-68
2023/07/15 02:58:13;;;;;;;0.00;0.00;;;20.30;99.90;;;;;;5030979;28;20090;-68
2023/07/15 03:00:39;;;;;;;0.03;0.03;;;20.30;99.90;;;;;;5023445;28;20553;-66
2023/07/15 03:03:04;;;;;;;0.00;0.00;;;20.20;99.90;;;;;;5037113;28;20128;-66
2023/07/15 03:05:30;;;;;;;0.00;0.00;;;20.20;99.90;;;;;;5050107;28;20384;-66
2023/07/15 03:07:56;;;;;;;0.00;0.00;;;20.20;99.90;;;;;;5035819;28;20405;-67
2023/07/15 03:10:22;;;;;;;0.15;0.10;;;20.20;99.90;;;;;;5031852;28;20034;-66
2023/07/15 03:12:48;;;;;;;0.20;0.17;;;20.10;99.90;;;;;;5046445;28;20037;-66
2023/07/15 03:15:14;;;;;;;0.00;0.00;;;20.10;99.90;;;;;;5025923;28;20095;-66
2023/07/15 03:17:40;;;;;;;0.10;0.10;;;20.10;99.90;;;;;;5025867;28;20056;-67
2023/07/15 03:20:19;;;;;;;0.28;0.28;;;20.00;99.90;;;;;;5031385;28;20175;-66
2023/07/15 03:22:46;;;;;;;0.10;0.10;;;20.00;99.90;;;;;;5044931;28;20045;-66
2023/07/15 03:25:11;;;;;;;0.10;0.10;;;20.00;99.90;;;;;;5020448;28;20120;-66
2023/07/15 03:27:37;;;;;;;1.65;0.32;;;20.00;99.90;;;;;;5049581;28;20162;-66
2023/07/15 03:30:07;;;;;;;3.30;0.85;;;20.00;99.90;;;;;;5029011;28;20473;-66
2023/07/15 03:32:39;;;;;;;1.08;1.00;;;19.90;99.90;;;;;;5045896;28;20064;-66
2023/07/15 03:35:08;;;;;;;0.23;0.23;;;19.90;99.90;;;;;;5030426;28;20054;-66
2023/07/15 03:37:34;;;;;;;0.00;0.00;;;19.80;99.90;;;;;;5041470;28;20040;-66
2023/07/15 03:40:00;;;;;;;0.00;0.00;;;19.90;99.90;;;;;;5038274;28;20477;-67
2023/07/15 03:42:27;;;;;;;0.00;0.00;;;19.90;99.90;;;;;;5043034;28;20051;-66
2023/07/15 03:44:53;;;;;;;0.00;0.00;;;19.90;99.90;;;;;;5029474;28;20040;-66
2023/07/15 03:47:19;;;;;;;1.23;0.30;;;19.90;99.90;;;;;;5048872;28;20086;-66
2023/07/15 03:49:46;;;;;;;0.20;0.10;;;19.90;99.90;;;;;;5040740;28;20064;-66
2023/07/15 03:52:12;;;;;;;1.35;0.47;;;19.90;99.90;;;;;;5041667;28;20484;-66
2023/07/15 03:54:37;;;;;;;0.10;0.10;;;19.80;99.90;;;;;;5034241;28;20057;-66
2023/07/15 03:57:03;;;;;;;0.52;0.52;;;19.70;99.90;;;;;;5037543;28;20048;-66
2023/07/15 03:59:29;;;;;;;0.38;0.25;;;19.70;99.90;;;;;;5027405;28;20086;-66
2023/07/15 04:01:54;;;;;;;0.00;0.00;;;19.70;99.90;;;;;;5030086;28;20444;-66
2023/07/15 04:04:21;;;;;;;0.10;0.10;;;19.60;99.90;;;;;;5019343;28;20534;-66
2023/07/15 04:06:47;;;;;;;0.13;0.13;;;19.70;99.90;;;;;;5034810;28;20503;-66
2023/07/15 04:09:13;;;;;;;0.10;0.10;;;19.70;99.90;;;;;;5012287;28;20557;-66
2023/07/15 04:11:39;;;;;;;0.10;0.10;;;19.60;99.90;;;;;;5043430;28;20120;-66
2023/07/15 04:14:06;;;;;;;0.00;0.00;;;19.60;99.90;;;;;;5044610;28;20055;-66
2023/07/15 04:16:31;;;;;;;0.00;0.00;;;19.60;99.90;;;;;;5019042;28;20136;-66
2023/07/15 04:18:57;;;;;;;0.47;0.43;;;19.60;99.90;;;;;;5037357;28;20549;-66
2023/07/15 04:21:23;;;;;;;0.08;0.08;;;19.70;99.90;;;;;;5036948;28;20174;-66
2023/07/15 04:23:49;;;;;;;0.90;0.28;;;19.60;99.90;;;;;;5035293;28;20045;-66
2023/07/15 04:26:25;;;;;;;0.10;0.10;;;19.60;99.90;;;;;;5042947;28;20174;-66
2023/07/15 04:28:51;;;;;;;0.20;0.20;;;19.60;99.90;;;;;;5039499;28;20092;-66
2023/07/15 04:31:18;;;;;;;0.00;0.00;;;19.70;99.90;;;;;;5033639;28;20445;-66
2023/07/15 04:33:45;;;;;;;0.47;0.20;;;19.70;99.90;;;;;;5031409;28;20072;-66
2023/07/15 04:36:10;;;;;;;0.00;0.00;;;19.70;99.90;;;;;;5044557;28;20141;-66
2023/07/15 04:38:36;;;;;;;0.03;0.03;;;19.70;99.90;;;;;;5037241;28;20129;-66
2023/07/15 04:41:01;;;;;;;0.00;0.00;;;19.70;99.90;;;;;;5032780;28;20055;-66
2023/07/15 04:43:27;;;;;;;0.00;0.00;;;19.70;99.90;;;;;;5035288;28;20033;-66
2023/07/15 04:45:53;;;;;;;0.15;0.15;;;19.70;99.90;;;;;;5043036;28;20037;-67
2023/07/15 04:48:18;;;;;;;0.20;0.20;;;19.70;99.90;;;;;;5032444;28;20025;-66
2023/07/15 04:50:45;;;;;;;0.80;0.73;;;19.70;99.90;;;;;;5031650;28;20033;-66
2023/07/15 04:53:11;;;;;;;0.63;0.63;;;19.80;99.90;;;;;;5026968;28;20054;-66
2023/07/15 04:55:36;;;;;;;0.00;0.00;;;19.80;99.90;;;;;;5039099;28;20041;-67
2023/07/15 04:58:03;;;;;;;0.28;0.28;;;19.90;99.90;;;;;;5042472;28;20095;-66
2023/07/15 05:00:29;;;;;;;0.00;0.00;;;20.00;99.90;;;;;;5028827;28;20041;-66
2023/07/15 05:02:55;;;;;;;0.35;0.35;;;20.00;99.90;;;;;;5028298;28;20042;-66
2023/07/15 05:05:20;;;;;;;0.65;0.17;;;20.10;99.90;;;;;;5045115;28;20111;-66
2023/07/15 05:07:48;;;;;;;0.28;0.28;;;20.10;99.90;;;;;;5040035;28;20047;-66
2023/07/15 05:10:14;;;;;;;2.10;0.88;;;20.10;99.90;;;;;;5021923;28;20130;-67
2023/07/15 05:12:39;;;;;;;0.35;0.35;;;20.20;99.90;;;;;;5031335;28;20136;-66
2023/07/15 05:15:06;;;;;;;0.00;0.00;;;20.30;99.90;;;;;;5046964;28;20041;-66
2023/07/15 05:17:32;;;;;;;0.10;0.10;;;20.40;99.90;;;;;;5033747;28;20540;-66
2023/07/15 05:19:58;;;;;;;0.17;0.17;;;20.40;99.90;;;;;;5032353;28;20041;-67
2023/07/15 05:22:23;;;;;;;0.00;0.00;;;20.50;99.90;;;;;;5035806;28;20045;-66
2023/07/15 05:24:49;;;;;;;0.00;0.00;;;20.50;99.90;;;;;;5011106;28;20095;-67
2023/07/15 05:27:15;;;;;;;0.00;0.00;;;20.60;99.90;;;;;;5023943;28;20049;-66
2023/07/15 05:29:40;;;;;;;0.10;0.10;;;20.60;99.90;;;;;;5012591;28;20041;-66
2023/07/15 05:32:07;;;;;;;0.08;0.08;;;20.60;99.90;;;;;;5019961;28;20532;-66
2023/07/15 05:34:32;;;;;;;0.00;0.00;;;20.60;99.90;;;;;;5034300;28;20045;-66
2023/07/15 05:36:58;;;;;;;0.00;0.00;;;20.70;99.90;;;;;;5032178;28;20044;-67
2023/07/15 05:39:24;;;;;;;1.08;0.55;;;20.70;99.90;;;;;;5025917;28;20045;-67
2023/07/15 05:41:49;;;;;;;0.00;0.00;;;20.70;99.90;;;;;;5030200;28;20053;-67
2023/07/15 05:44:15;;;;;;;0.20;0.20;;;20.80;99.90;;;;;;5028386;28;20068;-66
2023/07/15 05:46:40;;;;;;;0.00;0.00;;;20.80;99.90;;;;;;5042177;28;20366;-66
2023/07/15 05:49:06;;;;;;;2.28;0.50;;;20.80;99.90;;;;;;5029920;28;20085;-67
2023/07/15 05:51:32;;;;;;;0.30;0.30;;;20.90;99.90;;;;;;5036040;28;20492;-67
2023/07/15 05:53:58;;;;;;;0.10;0.10;;;20.90;99.90;;;;;;5036649;28;20442;-67
2023/07/15 05:56:23;;;;;;;0.00;0.00;;;21.00;99.90;;;;;;5030250;28;20160;-67
2023/07/15 05:58:50;;;;;;;0.45;0.45;;;21.10;99.90;;;;;;5032458;28;20246;-67
2023/07/15 06:01:16;;;;;;;3.30;0.80;;;21.10;99.90;;;;;;5028564;28;20053;-67
2023/07/15 06:03:41;;;;;;;0.70;0.38;;;21.10;99.90;;;;;;5035171;28;20041;-66
2023/07/15 06:06:07;;;;;;;0.20;0.20;;;21.10;99.90;;;;;;5030693;28;20041;-67
2023/07/15 06:08:33;;;;;;;0.00;0.00;;;21.10;99.90;;;;;;5044043;28;20179;-67
2023/07/15 06:10:59;;;;;;;0.00;0.00;;;21.10;99.90;;;;;;5041169;28;20090;-67
2023/07/15 06:13:24;;;;;;;0.85;0.45;;;21.10;99.90;;;;;;5033091;28;20045;-67
2023/07/15 06:15:50;;;;;;;0.00;0.00;;;21.20;99.90;;;;;;5032858;28;20370;-66
2023/07/15 06:18:17;;;;;;;0.00;0.00;;;21.30;99.90;;;;;;5026577;28;20045;-68
2023/07/15 06:20:46;;;;;;;0.00;0.00;;;21.30;99.90;;;;;;5039728;28;20479;-68
2023/07/15 06:23:13;;;;;;;0.00;0.00;;;21.30;99.90;;;;;;5027894;28;20041;-67
2023/07/15 06:25:39;;;;;;;0.00;0.00;;;21.40;99.90;;;;;;5040994;28;20040;-67
2023/07/15 06:28:05;;;;;;;0.25;0.25;;;21.40;99.90;;;;;;5039019;28;20033;-68
2023/07/15 06:30:30;;;;;;;0.00;0.00;;;21.50;99.90;;;;;;5023843;28;20061;-67
2023/07/15 06:32:56;;;;;;;0.10;0.10;;;21.50;99.90;;;;;;5027331;28;20053;-68
2023/07/15 06:35:22;;;;;;;0.10;0.10;;;21.50;99.90;;;;;;5005861;28;20100;-68
2023/07/15 06:37:48;;;;;;;0.10;0.10;;;21.50;99.90;;;;;;5047968;28;20393;-69
2023/07/15 06:40:20;;;;;;;0.00;0.00;;;21.50;99.90;;;;;;5041366;28;20103;-67
2023/07/15 06:42:46;;;;;;;0.15;0.15;;;21.50;99.90;;;;;;5036633;28;20044;-68
2023/07/15 06:45:12;;;;;;;0.10;0.10;;;21.50;99.90;;;;;;5033446;28;20050;-68
2023/07/15 06:47:38;;;;;;;0.00;0.00;;;21.50;99.90;;;;;;5023340;28;20110;-68
2023/07/15 06:50:05;;;;;;;0.17;0.17;;;21.50;99.90;;;;;;5047733;28;20381;-69
2023/07/15 06:52:31;;;;;;;0.00;0.00;;;21.50;99.90;;;;;;5030816;28;20045;-69
2023/07/15 06:54:56;;;;;;;0.00;0.00;;;21.40;99.90;;;;;;5028676;28;20091;-68
2023/07/15 06:57:22;;;;;;;0.00;0.00;;;21.50;99.90;;;;;;5048247;28;20156;-69
2023/07/15 06:59:48;;;;;;;0.00;0.00;;;21.50;99.90;;;;;;5030368;28;20129;-69
2023/07/15 07:02:13;;;;;;;0.43;0.43;;;21.40;99.90;;;;;;5042685;28;20048;-68
2023/07/15 07:04:39;;;;;;;0.00;0.00;;;21.40;99.90;;;;;;5024741;28;20492;-68
2023/07/15 07:07:05;;;;;;;0.00;0.00;;;21.40;99.90;;;;;;5039355;28;20045;-68
2023/07/15 07:09:31;;;;;;;0.20;0.20;;;21.40;99.90;;;;;;5036348;28;20087;-68
2023/07/15 07:11:57;;;;;;;0.20;0.20;;;21.40;99.90;;;;;;5026792;28;20042;-68
2023/07/15 07:14:23;;;;;;;0.00;0.00;;;21.50;99.90;;;;;;5032658;28;20117;-68
2023/07/15 07:16:48;;;;;;;1.08;0.47;;;21.50;99.90;;;;;;5044698;28;20119;-67
2023/07/15 07:19:14;;;;;;;0.30;0.30;;;21.50;99.90;;;;;;5038645;28;20094;-67
2023/07/15 07:21:40;;;;;;;0.00;0.00;;;21.60;99.90;;;;;;5022831;28;20057;-67
2023/07/15 07:24:06;;;;;;;0.00;0.00;;;21.60;99.90;;;;;;5048270;28;20370;-67
2023/07/15 07:26:31;;;;;;;0.10;0.10;;;21.60;99.90;;;;;;5046324;28;20040;-67
2023/07/15 07:28:58;;;;;;;0.10;0.10;;;21.60;99.90;;;;;;5038752;28;20099;-68
2023/07/15 07:31:24;;;;;;;0.00;0.00;;;21.60;99.90;;;;;;5048618;28;20099;-68
2023/07/15 07:33:49;;;;;;;0.00;0.00;;;21.70;99.90;;;;;;5045476;28;20053;-68
2023/07/15 07:36:15;;;;;;;4.43;1.15;;;21.70;99.90;;;;;;5019233;28;20057;-68
2023/07/15 07:38:40;;;;;;;0.00;0.00;;;21.70;99.90;;;;;;5046967;28;20037;-68
2023/07/15 07:41:11;;;;;;;0.00;0.00;;;21.80;99.90;;;;;;5032180;28;20547;-68
2023/07/15 07:43:37;;;;;;;0.17;0.15;;;21.80;99.90;;;;;;5038736;28;20037;-68
2023/07/15 07:46:05;;;;;;;0.03;0.03;;;21.80;99.90;;;;;;5037547;28;20038;-68
2023/07/15 07:48:31;;;;;;;0.00;0.00;;;21.90;99.90;;;;;;5038232;28;20046;-68
2023/07/15 07:50:57;;;;;;;0.08;0.08;;;21.90;99.90;;;;;;5029619;28;20053;-68
2023/07/15 07:53:23;;;;;;;0.00;0.00;;;21.90;99.90;;;;;;5040411;28;20091;-68
2023/07/15 07:55:50;;;;;;;0.00;0.00;;;21.90;99.90;;;;;;5029595;28;20036;-68
2023/07/15 07:58:16;;;;;;;3.85;0.30;;;21.90;99.90;;;;;;5037098;28;20046;-68
2023/07/15 08:00:41;;;;;;;6.82;0.47;;;21.90;99.90;;;;;;5044709;28;20507;-68
2023/07/15 08:03:07;;;;;;;0.00;0.00;;;21.90;99.90;;;;;;5032583;28;20140;-68
2023/07/15 08:05:33;;;;;;;0.55;0.55;;;21.90;99.90;;;;;;5014445;28;20045;-68
2023/07/15 08:07:58;;;;;;;0.00;0.00;;;21.90;99.90;;;;;;5026929;28;20444;-68
2023/07/15 08:10:24;;;;;;;1.08;0.98;;;21.90;99.90;;;;;;5041702;28;20135;-68
2023/07/15 08:12:49;;;;;;;0.40;0.30;;;21.90;99.90;;;;;;5028957;28;20048;-68
2023/07/15 08:15:15;;;;;;;0.98;0.98;;;21.90;99.90;;;;;;5029381;28;20053;-68
2023/07/15 08:17:41;;;;;;;0.10;0.10;;;22.00;99.90;;;;;;5024088;28;20045;-67
2023/07/15 08:20:08;;;;;;;0.00;0.00;;;22.10;99.90;;;;;;5033733;28;20071;-68
2023/07/15 08:22:34;;;;;;;0.03;0.00;;;22.10;99.90;;;;;;5024387;28;20061;-68
2023/07/15 08:25:00;;;;;;;0.00;0.00;;;22.20;99.90;;;;;;5032314;28;20040;-68
2023/07/15 08:27:25;;;;;;;0.00;0.00;;;22.20;99.90;;;;;;5040706;28;20064;-68
2023/07/15 08:29:51;;;;;;;0.00;0.00;;;22.30;99.90;;;;;;5026648;28;20034;-68
2023/07/15 08:32:17;;;;;;;0.00;0.00;;;22.40;99.90;;;;;;5033635;28;20066;-68
2023/07/15 08:35:03;;;;;;;0.00;0.00;;;22.40;99.90;;;;;;5013373;28;20481;-67
2023/07/15 08:37:29;;;;;;;0.00;0.00;;;22.40;99.90;;;;;;5037308;28;20040;-68
2023/07/15 08:39:55;;;;;;;0.00;0.00;;;22.30;99.90;;;;;;5020830;28;20539;-68
2023/07/15 08:42:22;;;;;;;0.00;0.00;;;22.30;99.90;;;;;;5014837;28;20060;-68
2023/07/15 08:44:49;;;;;;;0.00;0.00;;;22.30;99.90;;;;;;5042171;28;20052;-68
2023/07/15 08:47:23;;;;;;;0.00;0.00;;;22.40;99.90;;;;;;5016496;28;20061;-67
2023/07/15 08:49:50;;;;;;;0.32;0.32;;;22.50;99.90;;;;;;5032429;28;20086;-68
2023/07/15 08:52:21;;;;;;;1.35;0.55;;;22.50;99.90;;;;;;5022601;28;20037;-68
2023/07/15 08:54:48;;;;;;;0.45;0.25;;;22.50;99.90;;;;;;5038536;28;20049;-68
2023/07/15 08:57:24;;;;;;;1.98;1.00;;;22.60;99.90;;;;;;5026544;28;20045;-68
2023/07/15 08:59:56;;;;;;;0.00;0.00;;;22.60;99.90;;;;;;5024403;28;20065;-67
2023/07/15 09:02:22;;;;;;;0.08;0.08;;;22.60;99.90;;;;;;5036600;28;20046;-68
2023/07/15 09:04:47;;;;;;;0.00;0.00;;;22.60;99.90;;;;;;5036526;28;20477;-67
2023/07/15 09:07:13;;;;;;;0.00;0.00;;;22.60;99.90;;;;;;5029183;28;20141;-68
2023/07/15 09:09:39;;;;;;;0.90;0.82;;;22.60;99.90;;;;;;5045280;28;20033;-67
2023/07/15 09:12:09;;;;;;;0.00;0.00;;;22.70;99.90;;;;;;5028632;28;20064;-67
2023/07/15 09:14:41;;;;;;;0.10;0.10;;;22.80;99.90;;;;;;5020185;28;20131;-67
2023/07/15 09:17:07;;;;;;;0.00;0.00;;;22.90;99.90;;;;;;5022549;28;20087;-68
2023/07/15 09:19:34;;;;;;;0.35;0.35;;;23.10;99.90;;;;;;5026711;28;20073;-68
2023/07/15 09:22:05;;;;;;;0.00;0.00;;;23.10;99.90;;;;;;5008001;28;20053;-67
2023/07/15 09:24:34;;;;;;;0.30;0.15;;;23.10;99.90;;;;;;5032528;28;20049;-67
2023/07/15 09:27:00;;;;;;;0.00;0.00;;;23.20;99.90;;;;;;5028596;28;20033;-67
2023/07/15 09:29:26;;;;;;;0.00;0.00;;;23.10;99.90;;;;;;5036957;28;20042;-66
2023/07/15 09:31:52;;;;;;;0.00;0.00;;;23.00;99.90;;;;;;5021118;28;20056;-66
2023/07/15 09:34:18;;;;;;;0.00;0.00;;;23.10;99.90;;;;;;5029474;28;20034;-67
2023/07/15 09:36:44;;;;;;;0.60;0.45;;;23.20;99.90;;;;;;5037235;28;20381;-68
2023/07/15 09:39:14;;;;;;;0.00;0.00;;;23.30;99.90;;;;;;5024993;28;20048;-67
2023/07/15 09:41:41;;;;;;;2.90;1.02;;;23.20;99.90;;;;;;5020814;28;20045;-67
2023/07/15 09:44:08;;;;;;;0.28;0.03;;;23.30;99.90;;;;;;5020363;28;20056;-68
2023/07/15 09:46:34;;;;;;;1.20;0.30;;;23.50;99.90;;;;;;5011321;28;20060;-68
2023/07/15 09:48:59;;;;;;;26.30;0.80;;;23.80;99.90;;;;;;5014120;28;20408;-67
2023/07/15 09:51:26;;;;;;;0.05;0.05;;;24.10;99.90;;;;;;5028996;28;20041;-68
2023/07/15 09:53:54;;;;;;;0.20;0.20;;;24.40;99.90;;;;;;5043741;28;20044;-66
2023/07/15 09:56:27;;;;;;;0.10;0.10;;;24.30;99.90;;;;;;5016874;28;20083;-66
2023/07/15 09:58:56;;;;;;;0.38;0.38;;;24.10;99.90;;;;;;5030934;28;20042;-67
2023/07/15 10:01:35;;;;;;;0.00;0.00;;;24.10;99.90;;;;;;5024624;28;20048;-67
2023/07/15 10:04:22;;;;;;;0.00;0.00;;;24.30;99.90;;;;;;5021795;28;20052;-67
2023/07/15 10:06:51;;;;;;;0.65;0.32;;;24.30;99.90;;;;;;5036340;28;20384;-67
2023/07/15 10:09:19;;;;;;;0.10;0.10;;;24.40;99.90;;;;;;5043422;28;20049;-68
2023/07/15 10:11:45;;;;;;;0.10;0.10;;;24.30;99.90;;;;;;5030169;28;20501;-68
2023/07/15 10:14:12;;;;;;;0.00;0.00;;;24.20;99.90;;;;;;5041796;28;20045;-68
2023/07/15 10:16:38;;;;;;;0.00;0.00;;;24.10;99.90;;;;;;5018719;28;20476;-67
2023/07/15 10:19:04;;;;;;;0.00;0.00;;;24.10;99.90;;;;;;5038722;28;20197;-68
2023/07/15 10:21:30;;;;;;;0.55;0.20;;;23.90;99.90;;;;;;5046671;28;20068;-68
2023/07/15 10:24:17;;;;;;;0.00;0.00;;;24.00;99.90;;;;;;5027058;28;20038;-67
2023/07/15 10:26:49;;;;;;;0.17;0.10;;;24.10;99.90;;;;;;5026152;28;20370;-68
2023/07/15 10:29:14;;;;;;;0.00;0.00;;;24.10;99.90;;;;;;5042208;28;20494;-67
2023/07/15 10:31:40;;;;;;;0.08;0.08;;;24.00;99.90;;;;;;5024239;28;20056;-69
2023/07/15 10:34:06;;;;;;;1.02;0.30;;;24.00;99.90;;;;;;5035817;28;20037;-68
2023/07/15 10:36:35;;;;;;;0.65;0.45;;;24.00;99.90;;;;;;5025637;28;20045;-68
2023/07/15 10:39:16;;;;;;;0.00;0.00;;;24.30;99.90;;;;;;5022160;28;20481;-69
2023/07/15 10:41:44;;;;;;;0.85;0.28;;;24.60;99.90;;;;;;5036489;28;20044;-67
2023/07/15 10:44:16;;;;;;;0.00;0.00;;;24.80;99.90;;;;;;5037208;28;20053;-68
2023/07/15 10:46:48;;;;;;;0.00;0.00;;;25.20;99.90;;;;;;5032154;28;20038;-67
2023/07/15 10:49:13;;;;;;;0.00;0.00;;;25.30;99.90;;;;;;5032055;28;20049;-67
2023/07/15 10:51:39;;;;;;;0.00;0.00;;;25.30;99.90;;;;;;5040459;28;20378;-68
2023/07/15 10:54:05;;;;;;;2.28;0.38;;;25.40;99.90;;;;;;5024943;28;20135;-68
2023/07/15 10:56:31;;;;;;;0.10;0.10;;;25.40;99.90;;;;;;5027174;28;20076;-67
2023/07/15 10:58:59;;;;;;;0.00;0.00;;;25.60;99.90;;;;;;5039902;28;20040;-69
2023/07/15 11:01:25;;;;;;;0.00;0.00;;;25.50;99.90;;;;;;5014972;28;20041;-69
2023/07/15 11:03:51;;;;;;;0.73;0.57;;;25.60;99.90;;;;;;5050262;28;20082;-68
2023/07/15 11:06:16;;;;;;;0.10;0.10;;;25.50;99.90;;;;;;5031135;28;20045;-69
2023/07/15 11:08:44;;;;;;;0.00;0.00;;;25.50;99.90;;;;;;5051995;28;20040;-70
2023/07/15 11:11:10;;;;;;;0.20;0.20;;;25.30;99.90;;;;;;5030180;28;20091;-69
2023/07/15 11:13:37;;;;;;;0.10;0.10;;;25.10;99.90;;;;;;5039272;28;20477;-69
2023/07/15 11:16:04;;;;;;;0.47;0.47;;;25.00;99.90;;;;;;5039797;28;20045;-68
2023/07/15 11:18:30;;;;;;;0.17;0.17;;;25.00;99.90;;;;;;5036706;28;20046;-68
2023/07/15 11:20:58;;;;;;;0.00;0.00;;;25.00;99.90;;;;;;5038348;28;20128;-68
2023/07/15 11:23:24;;;;;;;0.15;0.15;;;25.00;99.90;;;;;;5044306;28;20083;-71
2023/07/15 11:25:50;;;;;;;0.00;0.00;;;25.20;99.90;;;;;;5029987;28;20481;-69
2023/07/15 11:28:17;;;;;;;0.00;0.00;;;25.30;99.90;;;;;;5019539;28;20049;-68
2023/07/15 11:30:45;;;;;;;0.63;0.63;;;25.50;99.90;;;;;;5026495;28;20092;-69
2023/07/15 11:33:11;;;;;;;0.00;0.00;;;25.60;99.90;;;;;;5029510;28;20555;-69
2023/07/15 11:35:40;;;;;;;0.43;0.30;;;25.60;99.90;;;;;;5032850;28;20034;-68
2023/07/15 11:38:13;;;;;;;0.52;0.52;;;25.60;99.90;;;;;;5023881;28;20049;-68
2023/07/15 11:41:08;;;;;;;0.00;0.00;;;25.90;99.90;;;;;;5041825;28;20041;-68
2023/07/15 11:43:34;;;;;;;0.17;0.17;;;26.10;99.90;;;;;;5008201;28;20049;-68
2023/07/15 11:46:00;;;;;;;0.10;0.10;;;26.10;99.90;;;;;;5032257;28;20045;-69
2023/07/15 11:48:31;;;;;;;0.00;0.00;;;26.30;99.90;;;;;;5039307;28;20039;-70
2023/07/15 11:51:05;;;;;;;0.30;0.13;;;26.50;99.90;;;;;;5029510;28;20081;-69
2023/07/15 11:53:32;;;;;;;0.00;0.00;;;26.00;99.90;;;;;;5037827;28;20045;-69
2023/07/15 11:55:59;;;;;;;0.00;0.00;;;25.80;99.90;;;;;;5019014;28;20037;-70
2023/07/15 11:58:45;;;;;;;0.00;0.00;;;25.60;99.90;;;;;;5036407;28;20128;-68
2023/07/15 12:01:17;;;;;;;0.00;0.00;;;25.30;99.90;;;;;;5011641;28;20041;-68
2023/07/15 12:03:44;;;;;;;3.83;0.55;;;25.10;99.90;;;;;;5039710;28;20024;-69
2023/07/15 12:06:26;;;;;;;0.00;0.00;;;25.00;99.90;;;;;;5028647;28;20085;-68
2023/07/15 12:08:59;;;;;;;0.00;0.00;;;24.90;99.90;;;;;;5032449;28;20041;-68
2023/07/15 12:11:25;;;;;;;0.10;0.10;;;24.70;99.90;;;;;;5043797;28;20045;-69
2023/07/15 12:13:51;;;;;;;2.00;0.45;;;24.70;99.90;;;;;;5022972;28;20132;-69
2023/07/15 12:16:19;;;;;;;0.00;0.00;;;24.70;99.90;;;;;;5047223;28;20481;-69
2023/07/15 12:18:45;;;;;;;0.10;0.10;;;24.70;99.90;;;;;;5046612;28;20124;-68
2023/07/15 12:21:11;;;;;;;0.10;0.10;;;24.60;99.90;;;;;;5032222;28;20128;-68
2023/07/15 12:23:36;;;;;;;0.00;0.00;;;24.50;99.90;;;;;;5048423;28;20052;-68
2023/07/15 12:26:02;;;;;;;0.00;0.00;;;24.40;99.90;;;;;;5031885;28;20045;-68
2023/07/15 12:28:27;;;;;;;0.00;0.00;;;24.30;99.90;;;;;;5027742;28;20458;-68
2023/07/15 12:30:53;;;;;;;0.00;0.00;;;24.30;99.90;;;;;;5046547;28;20080;-69
2023/07/15 12:33:20;;;;;;;0.20;0.10;;;24.50;99.90;;;;;;5050608;28;20049;-69
2023/07/15 12:35:46;;;;;;;0.00;0.00;;;24.60;99.90;;;;;;5044186;28;20045;-67
2023/07/15 12:38:11;;;;;;;0.45;0.43;;;25.00;99.90;;;;;;5014599;28;20068;-68
2023/07/15 12:40:37;;;;;;;0.05;0.05;;;24.90;99.90;;;;;;5051565;28;20044;-68
2023/07/15 12:43:03;;;;;;;0.00;0.00;;;24.90;99.90;;;;;;5030066;28;20386;-68
2023/07/15 12:45:29;;;;;;;0.63;0.63;;;24.90;99.90;;;;;;5043146;28;20080;-68
2023/07/15 12:47:55;;;;;;;0.30;0.28;;;24.80;99.90;;;;;;5031423;28;20070;-68